Time;durP1;ratioP1;P1;durP2;ratioP2;P2;SDS_P1;SDS_P2;PMS_P1;PMS_P2;Temp;Humidity;BMP_temperature;BMP_pressure;BME280_temperature;BME280_humidity;BME280_pressure;Samples;Min_cycle;Max_cycle;Signal;HPM_P1;HPM_P2
2021/12/23 00:00:48;;;;;;;0.80;0.80;;;-1.60;99.90;;;;;;5116803;28;20479;-78
2021/12/23 00:03:14;;;;;;;1.23;1.13;;;-1.60;99.90;;;;;;5117094;28;20101;-77
2021/12/23 00:05:39;;;;;;;20.27;6.40;;;-1.60;99.90;;;;;;5116790;28;20040;-78
2021/12/23 00:08:05;;;;;;;1.20;1.10;;;-1.30;99.90;;;;;;5116100;28;20375;-78
2021/12/23 00:10:30;;;;;;;0.87;0.87;;;-1.60;99.90;;;;;;5117115;28;20379;-75
2021/12/23 00:12:56;;;;;;;1.42;1.35;;;-1.60;99.90;;;;;;5116697;28;20531;-77
2021/12/23 00:15:32;;;;;;;1.13;1.10;;;-1.60;99.90;;;;;;5116760;28;20049;-77
2021/12/23 00:18:29;;;;;;;1.27;1.17;;;-1.60;99.90;;;;;;5116973;28;20391;-77
2021/12/23 00:23:41;;;;;;;0.90;0.90;;;-1.60;99.90;;;;;;5116530;28;20399;-77
2021/12/23 00:26:07;;;;;;;1.25;1.17;;;-1.60;99.90;;;;;;5116635;28;20048;-77
2021/12/23 00:28:33;;;;;;;0.90;0.90;;;-1.50;99.90;;;;;;5116597;28;20051;-78
2021/12/23 00:30:59;;;;;;;1.73;1.63;;;-1.50;99.90;;;;;;5116249;28;20046;-77
2021/12/23 00:33:26;;;;;;;5.30;4.88;;;-1.50;99.90;;;;;;5116469;28;20051;-77
2021/12/23 00:35:53;;;;;;;1.55;1.45;;;-1.60;99.90;;;;;;5116388;28;20048;-79
2021/12/23 00:38:26;;;;;;;3.17;2.97;;;-1.50;99.90;;;;;;5116295;28;20046;-77
2021/12/23 00:40:52;;;;;;;1.02;0.90;;;-1.40;99.90;;;;;;5116640;28;20050;-76
2021/12/23 00:43:19;;;;;;;1.15;1.08;;;-1.40;99.90;;;;;;5116365;28;20043;-78
2021/12/23 00:45:45;;;;;;;1.02;1.02;;;-1.40;99.90;;;;;;5116284;28;20044;-76
2021/12/23 00:48:11;;;;;;;2.05;1.95;;;-1.40;99.90;;;;;;5116514;28;20375;-75
2021/12/23 00:50:36;;;;;;;0.90;0.90;;;-1.40;99.90;;;;;;5115907;28;20044;-78
2021/12/23 00:53:06;;;;;;;3.15;2.92;;;-1.40;99.90;;;;;;5149510;27;20097;-77
2021/12/23 00:55:32;;;;;;;0.88;0.88;;;-1.40;99.90;;;;;;5116006;28;20039;-77
2021/12/23 00:57:59;;;;;;;0.90;0.90;;;-1.40;99.90;;;;;;5116124;28;20040;-79
2021/12/23 01:00:25;;;;;;;0.90;0.90;;;-1.40;99.90;;;;;;5115971;28;20046;-79
2021/12/23 01:02:51;;;;;;;3.20;2.95;;;-1.40;99.90;;;;;;5116176;28;20130;-78
2021/12/23 01:05:19;;;;;;;0.90;0.90;;;-1.40;99.90;;;;;;5116014;28;20040;-78
2021/12/23 01:07:45;;;;;;;0.80;0.80;;;-1.40;99.90;;;;;;5115750;28;20036;-78
2021/12/23 01:10:11;;;;;;;0.90;0.90;;;-1.40;99.90;;;;;;5116183;28;20211;-77
2021/12/23 01:12:44;;;;;;;2.20;1.10;;;-1.30;99.90;;;;;;5115749;28;20070;-76
2021/12/23 01:17:57;;;;;;;1.20;1.10;;;-1.30;99.90;;;;;;5093650;28;20128;-76
2021/12/23 01:20:27;;;;;;;;;;;-1.30;99.90;;;;;;5115593;28;20047;-77
2021/12/23 01:22:59;;;;;;;1.92;1.63;;;-1.30;99.90;;;;;;5115614;28;19927;-76
2021/12/23 01:25:25;;;;;;;0.80;0.80;;;-1.40;99.90;;;;;;5115961;28;20387;-78
2021/12/23 01:27:51;;;;;;;0.80;0.80;;;-1.30;99.90;;;;;;5115699;28;20039;-78
2021/12/23 01:30:17;;;;;;;3.27;3.07;;;-1.30;99.90;;;;;;5115432;28;20277;-75
2021/12/23 01:32:47;;;;;;;0.85;0.85;;;-1.30;99.90;;;;;;5114983;28;20480;-78
2021/12/23 01:35:14;;;;;;;2.70;2.17;;;-1.30;99.90;;;;;;5115043;28;20047;-76
2021/12/23 01:37:40;;;;;;;0.90;0.90;;;-1.30;99.90;;;;;;5115190;28;20042;-77
2021/12/23 01:40:07;;;;;;;0.90;0.90;;;-1.30;99.90;;;;;;5115230;28;20071;-78
2021/12/23 01:42:32;;;;;;;1.45;0.98;;;-1.30;99.90;;;;;;5113988;28;20052;-78
2021/12/23 01:44:58;;;;;;;0.80;0.80;;;-1.30;99.90;;;;;;5115247;28;20460;-77
2021/12/23 01:47:24;;;;;;;6.22;5.57;;;-1.20;99.90;;;;;;5115059;28;20039;-76
2021/12/23 01:49:50;;;;;;;0.85;0.85;;;-1.20;99.90;;;;;;5115332;28;20048;-76
2021/12/23 01:52:16;;;;;;;5.05;4.60;;;-1.20;99.90;;;;;;5114884;28;20048;-78
2021/12/23 01:54:42;;;;;;;1.23;1.13;;;-1.30;99.90;;;;;;5113558;28;20044;-79
2021/12/23 01:57:08;;;;;;;0.80;0.80;;;-1.20;99.90;;;;;;5113563;28;20078;-78
2021/12/23 01:59:34;;;;;;;1.42;1.33;;;-1.20;99.90;;;;;;5114582;27;20047;-77
2021/12/23 02:01:59;;;;;;;1.87;1.77;;;-1.10;99.90;;;;;;5114457;28;20502;-77
2021/12/23 02:04:25;;;;;;;0.90;0.90;;;-1.20;99.90;;;;;;5114664;28;20047;-77
2021/12/23 02:06:51;;;;;;;1.53;1.43;;;-1.20;99.90;;;;;;5113955;28;20038;-76
2021/12/23 02:09:18;;;;;;;0.90;0.90;;;-1.10;99.90;;;;;;5114638;28;20384;-78
2021/12/23 02:11:44;;;;;;;0.80;0.80;;;-1.10;99.90;;;;;;5114715;28;20130;-76
2021/12/23 02:14:10;;;;;;;0.98;0.98;;;-1.00;99.90;;;;;;5114802;28;20130;-78
2021/12/23 02:16:35;;;;;;;2.03;1.92;;;-1.30;99.90;;;;;;5114463;28;20130;-79
2021/12/23 02:19:04;;;;;;;1.80;1.10;;;-1.10;99.90;;;;;;5113748;28;20343;-77
2021/12/23 02:21:29;;;;;;;0.80;0.80;;;-1.10;99.90;;;;;;5114449;28;20532;-77
2021/12/23 02:23:55;;;;;;;2.08;1.98;;;-1.10;99.90;;;;;;5114777;28;20043;-77
2021/12/23 02:26:21;;;;;;;0.90;0.90;;;-1.10;99.90;;;;;;5114341;28;20039;-78
2021/12/23 02:28:46;;;;;;;0.80;0.80;;;-1.10;99.90;;;;;;5114379;28;20123;-77
2021/12/23 02:31:12;;;;;;;0.97;0.97;;;-1.10;99.90;;;;;;5114269;28;20479;-78
2021/12/23 02:33:38;;;;;;;1.05;1.02;;;-1.00;99.90;;;;;;5114363;28;20588;-77
2021/12/23 02:36:03;;;;;;;0.80;0.80;;;-1.10;99.90;;;;;;5113043;28;20051;-77
2021/12/23 02:38:29;;;;;;;0.80;0.80;;;-1.10;99.90;;;;;;5114162;28;20101;-76
2021/12/23 02:40:55;;;;;;;4.00;3.17;;;-1.10;99.90;;;;;;5114143;28;20471;-78
2021/12/23 02:43:26;;;;;;;2.38;1.83;;;-1.10;99.90;;;;;;5114191;28;20047;-77
2021/12/23 02:45:58;;;;;;;3.80;1.25;;;-1.10;99.90;;;;;;5112799;28;20047;-78
2021/12/23 02:48:27;;;;;;;2.83;1.50;;;-1.20;99.90;;;;;;5114057;28;20035;-76
2021/12/23 02:50:55;;;;;;;0.80;0.80;;;-1.20;99.90;;;;;;5113907;28;20052;-78
2021/12/23 02:53:23;;;;;;;1.38;1.27;;;-1.20;99.90;;;;;;5114313;28;20051;-77
2021/12/23 02:55:49;;;;;;;1.10;1.00;;;-1.30;99.90;;;;;;5113843;28;20471;-79
2021/12/23 02:58:15;;;;;;;1.83;1.73;;;-1.30;99.90;;;;;;5114064;28;20040;-75
2021/12/23 03:00:44;;;;;;;1.45;1.35;;;-1.30;99.90;;;;;;5114071;28;20036;-77
2021/12/23 03:03:10;;;;;;;9.45;3.35;;;-1.20;99.90;;;;;;5114025;28;20043;-76
2021/12/23 03:05:35;;;;;;;0.98;0.98;;;-1.30;99.90;;;;;;5113942;28;20047;-76
2021/12/23 03:08:02;;;;;;;7.37;6.73;;;-1.30;99.90;;;;;;5113958;28;20040;-76
2021/12/23 03:10:27;;;;;;;0.80;0.80;;;-1.30;99.90;;;;;;5113919;28;20048;-75
2021/12/23 03:12:53;;;;;;;0.93;0.93;;;-1.20;99.90;;;;;;5113937;28;20051;-78
2021/12/23 03:15:20;;;;;;;0.80;0.80;;;-1.00;99.90;;;;;;5113907;28;20048;-75
2021/12/23 03:17:45;;;;;;;2.13;2.03;;;-1.20;99.90;;;;;;5112679;28;20066;-78
2021/12/23 03:20:11;;;;;;;1.92;1.77;;;-1.10;99.90;;;;;;5113854;28;20475;-76
2021/12/23 03:22:37;;;;;;;0.90;0.90;;;-1.10;99.90;;;;;;5114062;28;20050;-78
2021/12/23 03:25:03;;;;;;;0.80;0.80;;;-1.10;99.90;;;;;;5147429;27;20064;-77
2021/12/23 03:27:30;;;;;;;0.90;0.90;;;-1.00;99.90;;;;;;5113893;28;20127;-75
2021/12/23 03:29:56;;;;;;;1.10;1.02;;;-1.00;99.90;;;;;;5113724;28;20554;-77
2021/12/23 03:32:23;;;;;;;0.80;0.80;;;-0.80;99.90;;;;;;5114182;28;20130;-76
2021/12/23 03:34:49;;;;;;;1.27;1.02;;;-1.00;99.90;;;;;;5113651;28;20084;-77
2021/12/23 03:37:15;;;;;;;1.10;1.00;;;-1.00;99.90;;;;;;5113595;28;20039;-76
2021/12/23 03:39:41;;;;;;;2.13;2.03;;;-1.00;99.90;;;;;;5113259;28;20066;-77
2021/12/23 03:42:07;;;;;;;6.28;5.65;;;-1.10;99.90;;;;;;5113735;28;20521;-77
2021/12/23 03:44:32;;;;;;;0.80;0.80;;;-1.10;99.90;;;;;;5113733;28;20051;-78
2021/12/23 03:46:58;;;;;;;1.15;1.15;;;-1.10;99.90;;;;;;5113589;28;20277;-78
2021/12/23 03:49:23;;;;;;;2.10;1.95;;;0.40;99.90;;;;;;5113548;28;20051;-76
2021/12/23 03:51:49;;;;;;;1.00;1.00;;;-1.10;99.90;;;;;;5113442;28;20113;-77
2021/12/23 03:54:14;;;;;;;1.00;0.83;;;-1.10;99.90;;;;;;5113783;28;20059;-77
2021/12/23 03:56:41;;;;;;;2.70;2.50;;;-1.10;99.90;;;;;;5114063;28;20047;-78
2021/12/23 03:59:07;;;;;;;0.90;0.90;;;-1.10;99.90;;;;;;5150318;27;20173;-76
2021/12/23 04:01:33;;;;;;;0.90;0.90;;;-1.10;99.90;;;;;;5117537;28;20500;-76
2021/12/23 04:03:59;;;;;;;1.80;1.20;;;-1.10;99.90;;;;;;5117150;28;20047;-76
2021/12/23 04:06:26;;;;;;;2.13;1.93;;;-1.10;99.90;;;;;;5117006;28;20391;-77
2021/12/23 04:08:52;;;;;;;0.90;0.90;;;-1.10;99.90;;;;;;5116959;28;20047;-77
2021/12/23 04:11:18;;;;;;;1.30;1.20;;;-1.10;99.90;;;;;;5117037;28;20131;-78
2021/12/23 04:13:44;;;;;;;0.80;0.80;;;-1.10;99.90;;;;;;5116977;28;20075;-75
2021/12/23 04:16:09;;;;;;;0.90;0.90;;;-1.10;99.90;;;;;;5117118;28;20243;-79
2021/12/23 04:18:35;;;;;;;1.80;1.70;;;-1.10;99.90;;;;;;5116848;28;20483;-78
2021/12/23 04:21:01;;;;;;;0.97;0.97;;;-0.10;99.90;;;;;;5116830;28;20044;-79
2021/12/23 04:23:29;;;;;;;0.88;0.88;;;-1.10;99.90;;;;;;5116964;28;20043;-77
2021/12/23 04:25:55;;;;;;;1.05;1.00;;;-1.10;99.90;;;;;;5116731;27;20094;-76
2021/12/23 04:28:22;;;;;;;2.78;2.60;;;-1.10;99.90;;;;;;5116686;28;20051;-77
2021/12/23 04:30:48;;;;;;;1.25;1.15;;;-1.10;99.90;;;;;;5116715;28;20093;-79
2021/12/23 04:33:14;;;;;;;1.65;1.55;;;-1.10;99.90;;;;;;5116615;28;20048;-78
2021/12/23 04:35:39;;;;;;;1.67;1.57;;;-1.10;99.90;;;;;;5116600;28;20039;-79
2021/12/23 04:38:05;;;;;;;1.42;1.33;;;-0.90;99.90;;;;;;5115294;28;20123;-77
2021/12/23 04:40:34;;;;;;;3.60;3.33;;;-1.10;99.90;;;;;;5116696;28;20116;-76
2021/12/23 04:43:01;;;;;;;0.98;0.95;;;-1.00;99.90;;;;;;5115510;28;20069;-75
2021/12/23 04:45:27;;;;;;;1.60;1.50;;;-0.80;99.90;;;;;;5117523;28;20039;-78
2021/12/23 04:47:53;;;;;;;1.00;0.95;;;-1.00;99.90;;;;;;5115769;28;20503;-77
2021/12/23 04:50:18;;;;;;;1.20;1.10;;;-1.00;99.90;;;;;;5120213;28;20065;-77
2021/12/23 04:52:44;;;;;;;0.93;0.93;;;-1.00;99.90;;;;;;5141066;27;20052;-78
2021/12/23 04:55:14;;;;;;;1.00;1.00;;;-1.00;99.90;;;;;;5116634;28;20108;-77
2021/12/23 04:57:41;;;;;;;1.20;1.17;;;-1.00;99.90;;;;;;5116527;28;20086;-79
2021/12/23 05:00:16;;;;;;;1.60;1.50;;;-0.90;99.90;;;;;;5116259;28;20039;-77
2021/12/23 05:02:41;;;;;;;0.80;0.80;;;-0.90;99.90;;;;;;5116320;27;20397;-77
2021/12/23 05:05:08;;;;;;;2.75;1.55;;;-0.90;99.90;;;;;;5116305;28;20109;-79
2021/12/23 05:07:33;;;;;;;4.45;4.05;;;-0.90;99.90;;;;;;5115937;28;20452;-78
2021/12/23 05:09:59;;;;;;;1.20;1.10;;;-0.80;99.90;;;;;;5116034;28;20077;-79
2021/12/23 05:12:24;;;;;;;2.33;1.70;;;-0.80;99.90;;;;;;5114320;28;20047;-79
2021/12/23 05:14:50;;;;;;;0.80;0.80;;;-0.80;99.90;;;;;;5115719;28;20043;-77
2021/12/23 05:17:16;;;;;;;0.80;0.80;;;-0.80;99.90;;;;;;5115604;28;20035;-77
2021/12/23 05:19:42;;;;;;;0.80;0.80;;;-0.80;99.90;;;;;;5149124;27;20093;-76
2021/12/23 05:22:08;;;;;;;2.35;2.15;;;-0.70;99.90;;;;;;5115488;28;20403;-76
2021/12/23 05:24:33;;;;;;;1.23;1.13;;;-0.80;99.90;;;;;;5115577;28;20046;-76
2021/12/23 05:26:59;;;;;;;0.80;0.80;;;-0.60;99.90;;;;;;5115114;28;20039;-78
2021/12/23 05:29:25;;;;;;;1.93;1.83;;;-0.80;99.90;;;;;;5148564;27;20050;-76
2021/12/23 05:31:51;;;;;;;1.60;1.50;;;-0.80;99.90;;;;;;5115128;28;20086;-75
2021/12/23 05:34:16;;;;;;;2.40;2.25;;;-0.80;99.90;;;;;;5115274;28;20479;-77
2021/12/23 05:36:42;;;;;;;1.30;1.20;;;-0.80;99.90;;;;;;5115174;28;20043;-79
2021/12/23 05:39:08;;;;;;;1.00;0.90;;;-0.80;99.90;;;;;;5147872;27;20479;-78
2021/12/23 05:41:34;;;;;;;0.80;0.80;;;-0.80;99.90;;;;;;5114798;28;20403;-78
2021/12/23 05:44:01;;;;;;;1.33;1.23;;;-0.80;99.90;;;;;;5113777;28;20494;-79
2021/12/23 05:46:26;;;;;;;0.90;0.90;;;-0.80;99.90;;;;;;5114359;28;20449;-78
2021/12/23 05:48:52;;;;;;;0.90;0.90;;;-1.20;99.90;;;;;;5115075;28;20052;-78
2021/12/23 05:51:18;;;;;;;2.25;2.15;;;-0.80;99.90;;;;;;5115279;28;20094;-77
2021/12/23 05:53:43;;;;;;;0.80;0.80;;;-0.80;99.90;;;;;;5114957;28;20089;-80
2021/12/23 05:56:10;;;;;;;1.10;1.10;;;-0.80;99.90;;;;;;5114890;28;20502;-79
2021/12/23 05:58:36;;;;;;;;;;;-0.70;99.90;;;;;;5115220;28;20073;-80
2021/12/23 06:01:02;;;;;;;0.80;0.80;;;-0.70;99.90;;;;;;5114766;28;19924;-78
2021/12/23 06:03:27;;;;;;;0.90;0.90;;;-0.50;99.90;;;;;;5114805;28;20090;-78
2021/12/23 06:05:53;;;;;;;1.55;1.45;;;-0.70;99.90;;;;;;5114964;28;20278;-80
2021/12/23 06:08:22;;;;;;;0.90;0.90;;;-0.50;99.90;;;;;;5114781;28;20039;-79
2021/12/23 06:10:47;;;;;;;1.33;1.23;;;-0.70;99.90;;;;;;5113336;28;20054;-81
2021/12/23 06:13:13;;;;;;;1.20;1.10;;;-0.70;99.90;;;;;;5114632;28;20039;-79
2021/12/23 06:15:39;;;;;;;5.93;4.33;;;-0.70;99.90;;;;;;5114686;28;20043;-81
2021/12/23 06:18:04;;;;;;;0.90;0.90;;;-0.70;99.90;;;;;;5115760;28;20045;-77
2021/12/23 06:20:30;;;;;;;2.10;2.00;;;-0.70;99.90;;;;;;5115401;28;20039;-79
2021/12/23 06:22:55;;;;;;;1.23;1.13;;;-0.70;99.90;;;;;;5114599;28;20530;-79
2021/12/23 06:25:24;;;;;;;0.80;0.80;;;-1.00;99.90;;;;;;5114271;28;20108;-78
2021/12/23 06:27:49;;;;;;;1.70;1.55;;;-0.70;99.90;;;;;;5114895;28;20042;-78
2021/12/23 06:30:17;;;;;;;6.93;3.97;;;-0.70;99.90;;;;;;5114302;28;20036;-79
2021/12/23 06:32:45;;;;;;;3.03;2.80;;;-0.70;99.90;;;;;;5114484;28;20039;-79
2021/12/23 06:35:11;;;;;;;1.55;1.45;;;-0.70;99.90;;;;;;5114055;28;20491;-79
2021/12/23 06:37:37;;;;;;;0.90;0.90;;;-0.70;99.90;;;;;;5113922;28;20040;-79
2021/12/23 06:40:03;;;;;;;3.10;2.90;;;-0.70;99.90;;;;;;5114244;28;20035;-80
2021/12/23 06:42:29;;;;;;;0.85;0.85;;;-0.70;99.90;;;;;;5114671;28;20134;-79
2021/12/23 06:44:54;;;;;;;2.87;1.87;;;-0.70;99.90;;;;;;5114286;28;20487;-78
2021/12/23 06:47:20;;;;;;;0.90;0.90;;;-0.60;99.90;;;;;;5114200;28;20476;-80
2021/12/23 06:49:47;;;;;;;0.80;0.80;;;-0.60;99.90;;;;;;5114330;28;20054;-81
2021/12/23 06:52:13;;;;;;;0.80;0.80;;;-0.40;99.90;;;;;;5113648;28;20130;-79
2021/12/23 06:54:42;;;;;;;0.90;0.90;;;-0.60;99.90;;;;;;5114000;28;20488;-80
2021/12/23 06:57:08;;;;;;;3.15;2.00;;;-0.60;99.90;;;;;;5113949;28;20116;-79
2021/12/23 06:59:34;;;;;;;1.55;1.45;;;-0.50;99.90;;;;;;5113161;28;20148;-78
2021/12/23 07:01:59;;;;;;;1.10;1.00;;;-0.60;99.90;;;;;;5113982;28;20055;-79
2021/12/23 07:04:30;;;;;;;1.10;1.00;;;-0.60;99.90;;;;;;5114478;28;20039;-78
2021/12/23 07:07:08;;;;;;;14.05;5.95;;;-0.60;99.90;;;;;;5114081;28;20043;-80
2021/12/23 07:09:38;;;;;;;2.03;1.92;;;-0.60;99.90;;;;;;5114469;28;20044;-80
2021/12/23 07:12:06;;;;;;;1.70;1.60;;;-0.50;99.90;;;;;;5113984;28;20043;-79
2021/12/23 07:14:31;;;;;;;0.80;0.80;;;-0.50;99.90;;;;;;5113837;28;20483;-79
2021/12/23 07:16:57;;;;;;;1.98;1.85;;;-0.50;99.90;;;;;;5113847;28;20093;-80
2021/12/23 07:19:22;;;;;;;1.47;1.37;;;-0.50;99.90;;;;;;5113862;28;20126;-79
2021/12/23 07:21:48;;;;;;;1.00;0.90;;;-0.50;99.90;;;;;;5113852;28;20127;-81
2021/12/23 07:24:13;;;;;;;2.35;2.15;;;-0.40;99.90;;;;;;5113852;28;20556;-81
2021/12/23 07:26:39;;;;;;;1.38;1.27;;;-0.40;99.90;;;;;;5114239;28;20044;-79
2021/12/23 07:29:05;;;;;;;1.63;1.53;;;-0.40;99.90;;;;;;5095816;28;20123;-79
2021/12/23 07:31:30;;;;;;;0.80;0.80;;;-0.40;99.90;;;;;;5114256;28;20086;-79
2021/12/23 07:33:56;;;;;;;2.87;2.67;;;-0.40;99.90;;;;;;5117842;28;20100;-80
2021/12/23 07:36:24;;;;;;;2.00;1.88;;;-0.40;99.90;;;;;;5117735;28;20483;-79
2021/12/23 07:38:50;;;;;;;1.95;1.85;;;-0.40;99.90;;;;;;5117542;28;20050;-78
2021/12/23 07:41:16;;;;;;;1.90;1.80;;;-0.40;99.90;;;;;;5117543;28;20043;-79
2021/12/23 07:43:55;;;;;;;0.80;0.80;;;-0.40;99.90;;;;;;5117438;28;20059;-80
2021/12/23 07:46:20;;;;;;;3.60;3.30;;;-0.40;99.90;;;;;;5117718;28;20163;-79
2021/12/23 07:48:46;;;;;;;1.77;1.67;;;-0.40;99.90;;;;;;5116415;28;20130;-80
2021/12/23 07:51:12;;;;;;;1.80;1.70;;;-0.40;99.90;;;;;;5116216;28;20066;-80
2021/12/23 07:53:38;;;;;;;1.08;1.08;;;-0.40;99.90;;;;;;5117207;28;20447;-79
2021/12/23 07:56:03;;;;;;;2.35;1.55;;;-0.40;99.90;;;;;;5117395;28;20145;-77
2021/12/23 07:58:29;;;;;;;1.47;1.37;;;-0.40;99.90;;;;;;5117240;28;20127;-80
2021/12/23 08:00:55;;;;;;;5.15;2.15;;;-0.40;99.90;;;;;;5117294;28;20131;-79
2021/12/23 08:03:20;;;;;;;1.10;1.00;;;-0.40;99.90;;;;;;5117275;28;20044;-80
2021/12/23 08:05:46;;;;;;;6.13;3.90;;;-0.40;99.90;;;;;;5116831;28;20101;-77
2021/12/23 08:08:11;;;;;;;1.63;1.53;;;0.10;99.90;;;;;;5116489;28;20050;-79
2021/12/23 08:10:37;;;;;;;1.35;1.25;;;-0.90;99.90;;;;;;5117140;28;20039;-78
2021/12/23 08:13:03;;;;;;;1.13;1.05;;;-0.30;99.90;;;;;;5117392;28;20048;-80
2021/12/23 08:15:28;;;;;;;2.17;2.00;;;-0.40;99.90;;;;;;5116692;28;20039;-78
2021/12/23 08:17:54;;;;;;;1.30;1.20;;;-0.30;99.90;;;;;;5116815;28;20123;-79
2021/12/23 08:20:20;;;;;;;0.80;0.80;;;-0.30;99.90;;;;;;5116762;28;20043;-80
2021/12/23 08:22:45;;;;;;;1.45;1.35;;;-0.30;99.90;;;;;;5117375;28;20047;-81
2021/12/23 08:25:12;;;;;;;2.13;2.03;;;-0.30;99.90;;;;;;5116901;28;20068;-81
2021/12/23 08:27:39;;;;;;;1.00;1.00;;;-0.30;99.90;;;;;;5116779;28;20080;-80
2021/12/23 08:30:07;;;;;;;1.83;1.65;;;-0.20;99.90;;;;;;5115624;28;20043;-80
2021/12/23 08:32:32;;;;;;;6.47;2.42;;;-0.20;99.90;;;;;;5115580;28;20169;-80
2021/12/23 08:34:58;;;;;;;4.45;4.15;;;-0.20;99.90;;;;;;5116804;28;20534;-82
2021/12/23 08:37:24;;;;;;;1.00;1.00;;;-0.20;99.90;;;;;;5116367;28;20136;-78
2021/12/23 08:39:51;;;;;;;0.80;0.80;;;-0.20;99.90;;;;;;5116208;28;20040;-79
2021/12/23 08:42:17;;;;;;;3.88;3.40;;;-0.20;99.90;;;;;;5116074;27;20180;-79
2021/12/23 08:44:42;;;;;;;1.47;1.37;;;-0.10;99.90;;;;;;5116631;28;20054;-83
2021/12/23 08:47:09;;;;;;;1.70;1.60;;;-0.10;99.90;;;;;;5116346;28;20399;-81
2021/12/23 08:49:35;;;;;;;;;;;-0.10;99.90;;;;;;5115677;28;20055;-82
2021/12/23 08:52:00;;;;;;;1.10;1.00;;;-0.10;99.90;;;;;;5116182;28;19919;-79
2021/12/23 08:54:26;;;;;;;0.90;0.90;;;-0.10;99.90;;;;;;5115943;28;20039;-79
2021/12/23 08:56:51;;;;;;;2.00;1.90;;;-0.10;99.90;;;;;;5116055;28;20100;-80
2021/12/23 08:59:18;;;;;;;8.05;5.60;;;0.50;99.90;;;;;;5116140;28;20040;-77
2021/12/23 09:01:45;;;;;;;0.95;0.95;;;-0.10;99.90;;;;;;5115946;28;20065;-78
2021/12/23 09:04:11;;;;;;;0.80;0.80;;;-0.10;99.90;;;;;;5116049;28;20047;-81
2021/12/23 09:06:37;;;;;;;1.45;1.35;;;-0.10;99.90;;;;;;5116341;28;20050;-79
2021/12/23 09:09:03;;;;;;;1.85;1.75;;;-0.10;99.90;;;;;;5115891;28;20051;-80
2021/12/23 09:11:29;;;;;;;2.50;1.90;;;0.10;99.90;;;;;;5115909;28;20051;-80
2021/12/23 09:13:55;;;;;;;1.10;1.00;;;-0.10;99.90;;;;;;5116269;28;20052;-80
2021/12/23 09:16:20;;;;;;;1.77;1.67;;;-0.10;99.90;;;;;;5117398;28;20083;-80
2021/12/23 09:18:46;;;;;;;1.30;1.20;;;-0.10;99.90;;;;;;5115372;28;20044;-80
2021/12/23 09:21:12;;;;;;;1.93;1.83;;;0.00;99.90;;;;;;5115573;28;20054;-82
2021/12/23 09:23:39;;;;;;;1.30;1.20;;;0.00;99.90;;;;;;5115582;27;20052;-80
2021/12/23 09:26:09;;;;;;;1.42;1.33;;;0.00;99.90;;;;;;5115519;28;20040;-79
2021/12/23 09:28:55;;;;;;;0.90;0.90;;;0.00;99.90;;;;;;5115266;28;20551;-78
2021/12/23 09:34:11;;;;;;;1.33;1.23;;;0.00;99.90;;;;;;5095271;28;20175;-80
2021/12/23 09:36:38;;;;;;;3.83;3.53;;;0.00;99.90;;;;;;5115095;28;20084;-78
2021/12/23 09:39:04;;;;;;;;;;;0.20;99.90;;;;;;5115582;28;20392;-79
2021/12/23 09:41:31;;;;;;;0.80;0.80;;;0.00;99.90;;;;;;5115148;28;20405;-79
2021/12/23 09:43:59;;;;;;;;;;;0.00;99.90;;;;;;5114588;28;20047;-82
2021/12/23 09:46:25;;;;;;;7.97;6.22;;;0.10;99.90;;;;;;5115727;28;19919;-78
2021/12/23 09:48:50;;;;;;;1.20;1.10;;;0.00;99.90;;;;;;5114727;28;20051;-81
2021/12/23 09:51:19;;;;;;;1.35;1.25;;;0.10;99.90;;;;;;5115126;28;20048;-81
2021/12/23 09:53:54;;;;;;;1.45;1.35;;;0.10;99.90;;;;;;5114938;28;20094;-80
2021/12/23 09:56:21;;;;;;;0.90;0.90;;;0.00;99.90;;;;;;5113813;28;20044;-78
2021/12/23 09:58:47;;;;;;;1.35;1.25;;;0.10;99.90;;;;;;5114738;28;20117;-81
2021/12/23 10:01:12;;;;;;;0.80;0.80;;;0.10;99.90;;;;;;5114641;28;20567;-81
2021/12/23 10:03:39;;;;;;;3.45;1.48;;;0.70;99.90;;;;;;5114884;28;20050;-81
2021/12/23 10:06:05;;;;;;;1.55;1.45;;;0.10;99.90;;;;;;5115120;28;20087;-80
2021/12/23 10:08:31;;;;;;;4.63;3.60;;;0.10;99.90;;;;;;5113529;28;20050;-83
2021/12/23 10:11:16;;;;;;;1.10;1.00;;;0.10;99.90;;;;;;5114654;28;20043;-80
2021/12/23 10:30:28;;;;;;;1.80;1.70;;;0.30;99.90;;;;;;5114462;28;20047;-79
2021/12/23 10:38:32;;;;;;;1.08;1.05;;;0.40;99.90;;;;;;5114012;28;20051;-80
2021/12/23 10:41:03;;;;;;;0.90;0.90;;;0.40;99.90;;;;;;5114253;28;20090;-81
2021/12/23 10:43:32;;;;;;;1.58;1.35;;;0.40;99.90;;;;;;5114802;28;20132;-80
2021/12/23 10:46:03;;;;;;;0.90;0.90;;;0.40;99.90;;;;;;5112952;28;20044;-80
2021/12/23 10:48:33;;;;;;;2.28;2.10;;;0.40;99.90;;;;;;5114319;28;20487;-81
2021/12/23 10:51:05;;;;;;;2.20;2.00;;;0.40;99.90;;;;;;5113011;28;20051;-80
2021/12/23 10:59:21;;;;;;;4.00;3.72;;;0.40;99.90;;;;;;5114061;28;20058;-81
2021/12/23 11:02:15;;;;;;;15.77;2.70;;;0.40;99.90;;;;;;5114853;28;20066;-83
2021/12/23 11:04:53;;;;;;;1.23;1.15;;;0.50;99.90;;;;;;5113011;28;20085;-81
2021/12/23 11:07:27;;;;;;;2.55;2.35;;;0.50;99.90;;;;;;5116618;28;20044;-81
2021/12/23 11:35:34;;;;;;;2.95;1.60;;;0.40;99.90;;;;;;5118016;28;20498;-79
2021/12/23 11:37:56;;;;;;;2.08;1.98;;;0.50;99.90;;;;;;5116920;28;20086;-83
2021/12/23 11:40:48;;;;;;;10.90;5.55;;;0.50;99.90;;;;;;5117669;28;20070;-82
2021/12/23 11:45:50;;;;;;;1.35;1.25;;;0.50;99.90;;;;;;5117180;28;20407;-82
2021/12/23 11:48:16;;;;;;;1.92;1.77;;;1.00;99.90;;;;;;5117726;28;20043;-82
2021/12/23 11:51:06;;;;;;;0.80;0.80;;;0.50;99.90;;;;;;5117326;28;20048;-80
2021/12/23 11:53:33;;;;;;;1.92;1.40;;;0.50;99.90;;;;;;5117717;28;20122;-81
2021/12/23 11:56:00;;;;;;;4.10;2.83;;;0.50;99.90;;;;;;5117472;28;20440;-82
2021/12/23 11:58:26;;;;;;;;;;;0.60;99.90;;;;;;5117962;28;20384;-83
2021/12/23 12:01:05;;;;;;;1.42;1.33;;;0.50;99.90;;;;;;5116804;28;20014;-84
2021/12/23 12:03:30;;;;;;;10.30;6.35;;;0.60;99.90;;;;;;5117335;28;20074;-82
2021/12/23 12:06:17;;;;;;;4.13;2.50;;;0.60;99.90;;;;;;5117392;28;20043;-82
2021/12/23 12:08:43;;;;;;;1.95;1.65;;;0.50;99.90;;;;;;5117961;27;20040;-81
2021/12/23 12:11:18;;;;;;;1.73;1.63;;;0.60;99.90;;;;;;5119656;28;20229;-82
2021/12/23 12:13:44;;;;;;;1.42;1.38;;;0.50;99.90;;;;;;5118605;28;20083;-80
2021/12/23 12:16:35;;;;;;;18.38;8.50;;;0.50;99.90;;;;;;5117488;28;20039;-80
2021/12/23 12:19:04;;;;;;;1.20;1.13;;;0.60;99.90;;;;;;5116365;28;20108;-82
2021/12/23 12:21:33;;;;;;;1.25;1.10;;;0.60;99.90;;;;;;5117094;28;20046;-79
2021/12/23 12:24:17;;;;;;;2.25;1.88;;;1.10;99.90;;;;;;5117158;28;20391;-83
2021/12/23 12:26:53;;;;;;;0.98;0.98;;;0.60;99.90;;;;;;5117193;28;20047;-81
2021/12/23 12:29:31;;;;;;;1.75;1.65;;;0.60;99.90;;;;;;5117048;28;20495;-82
2021/12/23 12:31:57;;;;;;;1.23;1.15;;;0.60;99.90;;;;;;5117401;28;20043;-81
2021/12/23 12:34:30;;;;;;;5.50;2.85;;;0.60;99.90;;;;;;5115582;28;20165;-81
2021/12/23 12:36:56;;;;;;;1.83;1.58;;;0.60;99.90;;;;;;5116693;28;20083;-83
2021/12/23 12:39:24;;;;;;;2.60;2.40;;;0.60;99.90;;;;;;5116732;28;20121;-83
2021/12/23 12:42:02;;;;;;;2.72;2.55;;;0.70;99.90;;;;;;5116718;28;20126;-80
2021/12/23 12:44:48;;;;;;;1.23;1.13;;;0.70;99.90;;;;;;5084742;28;20048;-83
2021/12/23 12:47:24;;;;;;;1.48;1.38;;;0.70;99.90;;;;;;5116829;27;20079;-79
2021/12/23 12:50:03;;;;;;;1.48;1.13;;;0.70;99.90;;;;;;5116574;28;20105;-82
2021/12/23 12:52:38;;;;;;;1.33;1.23;;;0.70;99.90;;;;;;5116666;28;20506;-81
2021/12/23 12:55:12;;;;;;;1.20;1.10;;;1.20;99.90;;;;;;5116315;28;20502;-78
2021/12/23 12:57:45;;;;;;;4.70;4.22;;;0.80;99.90;;;;;;5098455;28;20035;-83
2021/12/23 13:00:35;;;;;;;1.20;1.10;;;0.70;99.90;;;;;;5115471;28;20047;-82
2021/12/23 13:03:14;;;;;;;2.00;1.90;;;0.80;99.90;;;;;;5115662;28;20048;-82
2021/12/23 13:05:45;;;;;;;4.43;1.50;;;0.60;99.90;;;;;;5116591;28;20044;-80
2021/12/23 13:08:17;;;;;;;3.45;3.17;;;0.80;99.90;;;;;;5115201;28;20090;-82
2021/12/23 13:10:47;;;;;;;1.33;1.23;;;0.60;99.90;;;;;;5116430;28;20043;-80
2021/12/23 13:13:32;;;;;;;10.90;2.35;;;0.80;99.90;;;;;;5116578;28;20036;-82
2021/12/23 13:16:00;;;;;;;4.10;3.80;;;0.80;99.90;;;;;;5116912;28;20097;-81
2021/12/23 13:18:26;;;;;;;3.20;2.75;;;0.70;99.90;;;;;;5117268;28;20127;-81
2021/12/23 13:20:55;;;;;;;2.25;2.05;;;0.80;99.90;;;;;;5117096;28;20530;-82
2021/12/23 13:23:40;;;;;;;0.80;0.80;;;0.80;99.90;;;;;;5119003;27;20388;-83
2021/12/23 13:26:10;;;;;;;4.70;2.83;;;0.80;99.90;;;;;;5117146;28;20039;-80
2021/12/23 13:28:51;;;;;;;0.80;0.80;;;0.80;99.90;;;;;;5115882;28;20048;-83
2021/12/23 13:31:21;;;;;;;1.40;1.33;;;0.80;99.90;;;;;;5115980;28;20122;-80
2021/12/23 13:33:53;;;;;;;2.90;2.35;;;0.80;99.90;;;;;;5115864;28;20054;-83
2021/12/23 13:36:26;;;;;;;1.45;1.35;;;0.80;99.90;;;;;;5115708;27;20048;-79
2021/12/23 13:38:55;;;;;;;0.80;0.80;;;0.90;99.90;;;;;;5115622;28;20082;-81
2021/12/23 13:41:25;;;;;;;2.63;2.45;;;0.80;99.90;;;;;;5114953;28;20044;-80
2021/12/23 13:43:55;;;;;;;1.10;1.00;;;0.80;99.90;;;;;;5115763;28;20048;-82
2021/12/23 13:46:24;;;;;;;9.43;3.55;;;0.80;99.90;;;;;;5115395;28;20059;-79
2021/12/23 13:48:55;;;;;;;2.47;2.35;;;0.90;99.90;;;;;;5114298;28;20483;-81
2021/12/23 13:51:23;;;;;;;1.45;1.35;;;0.90;99.90;;;;;;5115052;28;20418;-79
2021/12/23 13:54:01;;;;;;;1.40;1.30;;;0.80;99.90;;;;;;5115416;28;20431;-81
2021/12/23 13:56:31;;;;;;;1.35;1.25;;;0.90;99.90;;;;;;5115362;28;20050;-82
2021/12/23 13:59:15;;;;;;;5.45;3.70;;;0.80;99.90;;;;;;5115489;28;20079;-79